Time;durP1;ratioP1;P1;durP2;ratioP2;P2;SDS_P1;SDS_P2;PMS_P1;PMS_P2;Temp;Humidity;BMP_temperature;BMP_pressure;BME280_temperature;BME280_humidity;BME280_pressure;Samples;Min_cycle;Max_cycle;Signal;HPM_P1;HPM_P2
2023/06/29 00:01:02;;;;;;;4.40;3.10;;;;;;;18.88;72.11;98948.78;4958506;28;20066;-81
2023/06/29 00:03:28;;;;;;;4.32;3.40;;;;;;;18.49;73.92;98949.25;4963769;28;20031;-81
2023/06/29 00:05:57;;;;;;;3.85;3.20;;;;;;;18.63;73.95;98950.06;4965792;28;20081;-81
2023/06/29 00:08:24;;;;;;;4.53;3.60;;;;;;;18.67;72.53;98944.88;4964765;28;20035;-81
2023/06/29 00:10:50;;;;;;;5.25;3.75;;;;;;;19.15;68.91;98956.13;4966467;28;20423;-81
2023/06/29 00:13:16;;;;;;;5.32;4.80;;;;;;;18.77;72.61;98951.97;4957826;28;20039;-81
2023/06/29 00:15:42;;;;;;;3.92;3.20;;;;;;;19.29;67.29;98960.41;4958370;28;20542;-81
2023/06/29 00:18:08;;;;;;;3.70;3.05;;;;;;;19.91;64.39;98952.59;4967436;28;20039;-81
2023/06/29 00:20:34;;;;;;;3.85;3.25;;;;;;;19.99;63.65;98955.38;4949950;28;20031;-81
2023/06/29 00:23:00;;;;;;;2.95;2.75;;;;;;;19.90;64.00;98945.56;4967015;28;20081;-81
2023/06/29 00:25:25;;;;;;;3.53;3.08;;;;;;;20.19;63.01;98940.53;4954303;28;20034;-81
2023/06/29 00:27:51;;;;;;;4.00;3.53;;;;;;;19.70;66.39;98940.63;4948725;29;20031;-81
2023/06/29 00:30:16;;;;;;;3.13;2.80;;;;;;;19.81;64.07;98939.28;4971749;28;20031;-81
2023/06/29 00:32:41;;;;;;;3.80;3.25;;;;;;;19.17;71.55;98945.78;4944645;28;20039;-81
2023/06/29 00:35:07;;;;;;;3.85;3.40;;;;;;;18.83;72.59;98945.41;4949142;28;20030;-81
2023/06/29 00:37:32;;;;;;;6.90;2.67;;;;;;;19.61;65.50;98935.13;4956103;28;20031;-81
2023/06/29 00:39:58;;;;;;;2.90;2.70;;;;;;;19.83;64.23;98947.91;4949672;28;20035;-81
2023/06/29 00:42:23;;;;;;;4.93;2.63;;;;;;;20.13;63.36;98952.59;4959378;28;20031;-81
2023/06/29 00:44:49;;;;;;;4.68;2.97;;;;;;;20.24;62.84;98948.56;4964923;28;20042;-81
2023/06/29 00:47:14;;;;;;;3.30;3.00;;;;;;;20.16;63.18;98941.13;4949378;28;20051;-81
2023/06/29 00:49:40;;;;;;;4.38;2.95;;;;;;;20.19;63.40;98935.91;4959859;28;20059;-81
2023/06/29 00:52:06;;;;;;;4.10;2.80;;;;;;;20.26;63.02;98923.84;4947468;28;20036;-81
2023/06/29 00:54:31;;;;;;;4.03;3.05;;;;;;;20.21;63.13;98935.63;4965026;28;20043;-81
2023/06/29 00:56:58;;;;;;;4.53;2.80;;;;;;;19.91;65.85;98925.50;4957133;28;20041;-81
2023/06/29 00:59:24;;;;;;;3.22;2.92;;;;;;;20.01;63.97;98936.09;4954360;28;20023;-81
2023/06/29 01:01:51;;;;;;;2.63;2.40;;;;;;;20.20;63.15;98925.88;4964654;28;20053;-81
2023/06/29 01:04:22;;;;;;;2.95;2.75;;;;;;;20.07;63.57;98926.75;4959099;28;20041;-82
2023/06/29 01:06:57;;;;;;;3.00;2.63;;;;;;;19.87;65.01;98930.75;4957825;28;20039;-81
2023/06/29 01:09:24;;;;;;;4.07;3.30;;;;;;;19.78;65.83;98929.88;4965734;28;20034;-81
2023/06/29 01:11:51;;;;;;;6.13;2.60;;;;;;;19.92;64.00;98930.59;4963100;28;20122;-81
2023/06/29 01:14:19;;;;;;;2.88;2.67;;;;;;;20.07;63.57;98932.16;4967724;28;20037;-81
2023/06/29 01:16:47;;;;;;;4.38;2.65;;;;;;;20.12;63.24;98908.44;4966823;28;20332;-81
2023/06/29 01:19:21;;;;;;;3.20;2.75;;;;;;;20.28;63.15;98911.59;4962033;28;20495;-81
2023/06/29 01:22:00;;;;;;;2.97;2.65;;;;;;;20.32;62.92;98923.41;4961955;28;20027;-81
2023/06/29 01:24:26;;;;;;;2.75;2.50;;;;;;;20.33;63.25;98918.81;4959054;28;20058;-81
2023/06/29 01:26:52;;;;;;;3.78;2.50;;;;;;;20.28;63.51;98916.22;4963822;28;20054;-81
2023/06/29 01:29:24;;;;;;;2.78;2.53;;;;;;;20.06;64.20;98915.09;4959066;28;20391;-81
2023/06/29 01:31:59;;;;;;;2.92;2.50;;;;;;;20.24;63.81;98910.63;4958053;28;20030;-81
2023/06/29 01:34:28;;;;;;;5.03;2.50;;;;;;;20.21;63.51;98911.22;4960479;28;20026;-81
2023/06/29 01:37:01;;;;;;;4.82;2.55;;;;;;;19.51;70.06;98908.25;4960339;28;20067;-81
2023/06/29 01:39:29;;;;;;;2.88;2.67;;;;;;;19.23;69.44;98901.28;4952023;28;20300;-81
2023/06/29 01:41:55;;;;;;;4.03;2.55;;;;;;;19.33;69.37;98917.31;4965956;28;20035;-81
2023/06/29 01:44:20;;;;;;;5.55;3.38;;;;;;;19.02;73.66;98916.34;4967680;28;20042;-81
2023/06/29 01:46:47;;;;;;;5.07;3.38;;;;;;;18.56;75.26;98897.50;4966364;28;20396;-81
2023/06/29 01:49:13;;;;;;;3.13;2.63;;;;;;;18.73;74.33;98903.13;4969804;28;20047;-80
2023/06/29 01:51:39;;;;;;;8.52;3.30;;;;;;;18.57;75.54;98908.00;4966864;28;20035;-81
2023/06/29 01:54:04;;;;;;;4.03;3.60;;;;;;;18.45;75.83;98901.47;4962602;28;20027;-80
2023/06/29 01:56:30;;;;;;;6.20;3.78;;;;;;;18.39;76.31;98908.84;4963450;28;20195;-81
2023/06/29 01:58:55;;;;;;;5.35;3.75;;;;;;;18.39;77.04;98910.75;4959402;28;20078;-81
2023/06/29 02:01:21;;;;;;;5.82;4.97;;;;;;;18.27;77.03;98905.00;4964785;28;20356;-81
2023/06/29 02:03:46;;;;;;;6.88;4.25;;;;;;;18.08;77.22;98899.69;4966743;28;20178;-81
2023/06/29 02:06:12;;;;;;;7.57;4.72;;;;;;;18.02;78.40;98902.75;4959351;28;20039;-80
2023/06/29 02:08:38;;;;;;;7.50;4.95;;;;;;;17.93;78.27;98900.69;4959026;28;20093;-81
2023/06/29 02:11:04;;;;;;;11.00;6.20;;;;;;;18.04;77.80;98905.97;4967437;28;20043;-81
2023/06/29 02:13:29;;;;;;;3.30;3.00;;;;;;;18.77;69.51;98893.28;4963354;28;20019;-81
2023/06/29 02:15:55;;;;;;;7.13;3.88;;;;;;;19.23;68.60;98887.75;4957334;28;20350;-81
2023/06/29 02:18:20;;;;;;;2.95;2.72;;;;;;;19.54;66.96;98902.25;4968012;28;20023;-81
2023/06/29 02:20:46;;;;;;;3.30;3.00;;;;;;;19.79;65.71;98901.66;4965735;28;20048;-81
2023/06/29 02:23:11;;;;;;;3.88;3.45;;;;;;;19.67;66.26;98906.81;4954627;28;20086;-81
2023/06/29 02:25:36;;;;;;;4.65;3.30;;;;;;;19.47;66.98;98891.03;4960759;28;20089;-81
2023/06/29 02:28:02;;;;;;;3.28;2.97;;;;;;;19.74;65.66;98895.56;4959083;28;20105;-81
2023/06/29 02:30:27;;;;;;;3.38;3.08;;;;;;;19.48;67.01;98900.78;4962836;28;20396;-82
2023/06/29 02:32:52;;;;;;;6.68;3.58;;;;;;;19.50;66.81;98893.16;4949452;28;20034;-81
2023/06/29 02:35:18;;;;;;;3.83;3.15;;;;;;;19.88;65.52;98891.69;4931492;28;20102;-81
2023/06/29 02:37:43;;;;;;;4.60;3.10;;;;;;;19.58;66.24;98886.19;4973555;28;20035;-81
2023/06/29 02:40:09;;;;;;;8.23;3.47;;;;;;;19.30;67.70;98891.66;4958303;28;20072;-81
2023/06/29 02:42:36;;;;;;;4.65;3.47;;;;;;;19.68;65.76;98878.63;4951968;28;20039;-82
2023/06/29 02:45:01;;;;;;;3.75;3.05;;;;;;;19.67;65.53;98887.88;4958206;28;20031;-81
2023/06/29 02:47:28;;;;;;;6.22;3.42;;;;;;;19.52;66.91;98884.72;4954007;28;20035;-81
2023/06/29 02:49:54;;;;;;;4.28;2.83;;;;;;;19.80;65.77;98881.59;4955450;28;20155;-81
2023/06/29 02:52:20;;;;;;;3.53;3.22;;;;;;;19.75;65.78;98875.47;4962173;28;20473;-81
2023/06/29 02:54:45;;;;;;;3.53;3.08;;;;;;;19.85;65.38;98870.66;4948005;28;20158;-81
2023/06/29 02:57:11;;;;;;;8.95;3.58;;;;;;;19.84;64.98;98865.53;4957149;28;20073;-81
2023/06/29 02:59:36;;;;;;;3.20;2.85;;;;;;;19.81;65.50;98874.28;4949942;28;20023;-82
2023/06/29 03:02:01;;;;;;;5.47;3.67;;;;;;;19.81;65.33;98868.88;4952138;28;20038;-81
2023/06/29 03:04:27;;;;;;;3.67;3.38;;;;;;;19.56;66.77;98869.44;4945032;28;20026;-81
2023/06/29 03:06:52;;;;;;;6.05;3.15;;;;;;;19.80;65.87;98873.47;4957015;28;20036;-81
2023/06/29 03:09:19;;;;;;;5.05;2.53;;;;;;;19.88;65.23;98869.22;4958061;28;20039;-81
2023/06/29 03:11:44;;;;;;;3.38;2.67;;;;;;;19.64;66.52;98871.41;4960747;28;20122;-81
2023/06/29 03:14:09;;;;;;;4.07;3.00;;;;;;;19.64;65.62;98868.69;4950985;28;20127;-81
2023/06/29 03:16:35;;;;;;;4.93;2.92;;;;;;;19.59;66.24;98866.94;4958070;28;20113;-81
2023/06/29 03:19:00;;;;;;;6.93;3.88;;;;;;;19.52;66.01;98865.75;4956585;28;20027;-82
2023/06/29 03:21:26;;;;;;;3.70;3.38;;;;;;;19.03;71.70;98870.03;4947143;28;20027;-81
2023/06/29 03:23:51;;;;;;;4.18;3.78;;;;;;;18.70;74.86;98871.25;4965614;28;20102;-81
2023/06/29 03:26:17;;;;;;;5.78;4.00;;;;;;;18.50;75.63;98866.25;4955936;28;20126;-80
2023/06/29 03:28:42;;;;;;;3.40;3.10;;;;;;;18.70;70.87;98868.56;4964873;28;20039;-81
2023/06/29 03:31:07;;;;;;;3.33;2.75;;;;;;;19.05;67.94;98848.88;4962329;28;20039;-81
2023/06/29 03:33:33;;;;;;;4.25;3.47;;;;;;;19.31;66.94;98860.75;4962446;28;20031;-81
2023/06/29 03:35:58;;;;;;;6.68;4.03;;;;;;;18.89;71.26;98869.28;4949341;28;20149;-81
2023/06/29 03:38:23;;;;;;;7.60;3.50;;;;;;;18.54;74.38;98864.56;4957577;28;20031;-81
2023/06/29 03:40:49;;;;;;;5.13;3.65;;;;;;;18.39;75.83;98870.22;4960059;28;20085;-81
2023/06/29 03:43:14;;;;;;;6.20;4.05;;;;;;;18.25;76.78;98870.19;4959196;28;20058;-81
2023/06/29 03:45:39;;;;;;;8.18;3.88;;;;;;;18.22;76.68;98864.56;4960775;28;20031;-81
2023/06/29 03:48:05;;;;;;;3.55;3.00;;;;;;;18.35;73.30;98866.50;4962810;28;20427;-81
2023/06/29 03:50:30;;;;;;;5.00;4.07;;;;;;;18.47;74.27;98866.84;4956515;28;20039;-80
2023/06/29 03:52:56;;;;;;;4.25;3.38;;;;;;;18.46;74.09;98863.34;4958827;28;20458;-81
2023/06/29 03:55:24;;;;;;;5.82;4.25;;;;;;;18.22;77.15;98870.78;4962581;28;20038;-81
2023/06/29 03:57:49;;;;;;;4.10;3.70;;;;;;;18.17;76.31;98865.47;4968205;28;20038;-80
2023/06/29 04:00:14;;;;;;;3.42;3.10;;;;;;;18.85;69.75;98868.25;4960598;28;20031;-81
2023/06/29 04:02:40;;;;;;;4.45;3.75;;;;;;;18.77;71.46;98865.44;4963290;28;20031;-80
2023/06/29 04:05:05;;;;;;;9.57;5.15;;;;;;;18.99;72.01;98860.13;4961826;28;20039;-81
2023/06/29 04:07:31;;;;;;;4.10;3.63;;;;;;;18.46;75.46;98851.72;4965873;28;20078;-80
2023/06/29 04:09:56;;;;;;;7.10;4.55;;;;;;;18.56;73.52;98855.06;4958153;28;20045;-80
2023/06/29 04:12:21;;;;;;;5.55;5.00;;;;;;;18.26;77.36;98863.66;4950159;28;20127;-81
2023/06/29 04:14:47;;;;;;;9.55;5.18;;;;;;;18.03;78.84;98855.72;4964569;28;20114;-81
2023/06/29 04:17:12;;;;;;;6.75;4.18;;;;;;;18.07;77.67;98856.72;4962857;28;20034;-81
2023/06/29 04:19:37;;;;;;;6.32;4.57;;;;;;;18.15;77.60;98853.38;4959762;28;20031;-81
2023/06/29 04:22:03;;;;;;;5.40;4.88;;;;;;;18.22;76.50;98859.97;4963706;28;20043;-81
2023/06/29 04:24:28;;;;;;;13.23;5.80;;;;;;;18.07;78.11;98856.72;4947177;28;20035;-81
2023/06/29 04:26:54;;;;;;;5.80;3.13;;;;;;;18.43;72.22;98855.81;4965617;28;20117;-81
2023/06/29 04:29:19;;;;;;;4.25;3.80;;;;;;;18.86;69.86;98855.53;4951261;28;20380;-81
2023/06/29 04:31:44;;;;;;;6.60;4.25;;;;;;;19.03;68.99;98847.59;4943842;28;20030;-81
2023/06/29 04:34:10;;;;;;;5.57;3.95;;;;;;;19.36;67.69;98849.84;4964093;28;20039;-82
2023/06/29 04:36:35;;;;;;;5.78;3.88;;;;;;;19.18;68.48;98842.66;4950059;28;20038;-81
2023/06/29 04:39:00;;;;;;;4.00;3.40;;;;;;;19.32;68.08;98853.44;4961758;28;20382;-82
2023/06/29 04:41:32;;;;;;;7.18;3.38;;;;;;;19.39;68.17;98845.75;4961511;28;20035;-81
2023/06/29 04:43:59;;;;;;;6.47;2.80;;;;;;;19.60;67.61;98849.56;4934883;28;20972;-81
2023/06/29 04:46:25;;;;;;;3.38;3.15;;;;;;;19.63;67.04;98840.03;4951124;28;20031;-81
2023/06/29 04:48:51;;;;;;;4.78;3.30;;;;;;;19.60;67.39;98846.88;4946141;28;20042;-82
2023/06/29 04:51:17;;;;;;;9.13;3.78;;;;;;;19.55;67.64;98840.78;4931918;28;20403;-81
2023/06/29 04:53:42;;;;;;;4.90;3.35;;;;;;;19.62;67.61;98846.56;4948738;28;20506;-81
2023/06/29 04:56:08;;;;;;;5.10;3.85;;;;;;;19.39;71.65;98837.63;4948824;28;20035;-79
2023/06/29 04:58:33;;;;;;;9.45;3.63;;;;;;;19.54;67.84;98841.88;4946991;28;20039;-82
2023/06/29 05:00:59;;;;;;;5.18;2.83;;;;;;;19.62;67.54;98838.44;4951496;28;20145;-80
2023/06/29 05:03:25;;;;;;;7.18;3.45;;;;;;;19.73;66.76;98829.75;4955986;28;20039;-82
2023/06/29 05:05:50;;;;;;;4.28;3.35;;;;;;;19.78;66.79;98834.25;4950554;28;20121;-80
2023/06/29 05:08:15;;;;;;;4.53;3.05;;;;;;;19.77;66.71;98825.31;4963824;28;20467;-80
2023/06/29 05:10:41;;;;;;;4.15;3.03;;;;;;;19.59;68.41;98839.88;4949571;28;20043;-81
2023/06/29 05:13:07;;;;;;;5.40;3.72;;;;;;;19.51;70.12;98835.16;4947788;28;20026;-81
2023/06/29 05:15:32;;;;;;;7.30;3.78;;;;;;;19.70;67.50;98830.38;4946568;28;20050;-80
2023/06/29 05:17:57;;;;;;;4.95;3.72;;;;;;;19.94;66.37;98828.13;4946216;28;20126;-79
2023/06/29 05:20:23;;;;;;;3.97;3.20;;;;;;;20.06;66.92;98828.38;4952940;28;20356;-80
2023/06/29 05:22:48;;;;;;;4.65;3.40;;;;;;;19.90;68.09;98823.63;4965891;28;20050;-80
2023/06/29 05:25:14;;;;;;;9.20;3.65;;;;;;;19.71;71.63;98831.16;4941872;28;20142;-80
2023/06/29 05:27:40;;;;;;;7.30;4.00;;;;;;;19.47;73.59;98831.47;4943019;28;20046;-80
2023/06/29 05:30:08;;;;;;;6.07;3.35;;;;;;;19.62;69.48;98816.75;4968770;28;20046;-81
2023/06/29 05:32:34;;;;;;;5.53;3.40;;;;;;;19.53;72.91;98822.13;4953591;28;20019;-81
2023/06/29 05:34:59;;;;;;;3.83;3.53;;;;;;;19.43;73.23;98831.28;4959940;28;20034;-80
2023/06/29 05:37:25;;;;;;;5.80;3.53;;;;;;;19.35;74.31;98832.00;4968227;28;20117;-81
2023/06/29 05:39:50;;;;;;;5.55;3.65;;;;;;;19.84;70.45;98820.28;4950663;28;20023;-80
2023/06/29 05:42:16;;;;;;;6.45;3.88;;;;;;;19.62;72.99;98822.97;4960222;28;20038;-80
2023/06/29 05:44:41;;;;;;;6.40;3.10;;;;;;;19.66;71.56;98823.97;4961094;28;20479;-80
2023/06/29 05:47:06;;;;;;;10.57;4.15;;;;;;;19.70;72.42;98818.75;4957052;28;20516;-80
2023/06/29 05:49:32;;;;;;;7.45;4.32;;;;;;;19.37;73.60;98813.53;4951734;28;20042;-82
2023/06/29 05:51:57;;;;;;;5.70;3.95;;;;;;;19.81;72.85;98817.41;4947649;28;20035;-81
2023/06/29 05:54:23;;;;;;;8.07;4.72;;;;;;;19.74;72.99;98817.03;4968032;28;20184;-80
2023/06/29 05:56:48;;;;;;;5.55;3.45;;;;;;;20.06;70.77;98811.31;4956631;28;20035;-80
2023/06/29 05:59:13;;;;;;;7.60;4.43;;;;;;;19.27;75.13;98816.47;4948303;28;20487;-80
2023/06/29 06:01:39;;;;;;;6.75;4.38;;;;;;;19.84;70.65;98806.72;4947400;28;20080;-81
2023/06/29 06:04:05;;;;;;;4.38;3.80;;;;;;;20.20;69.46;98814.75;4949747;29;20037;-80
2023/06/29 06:06:31;;;;;;;5.80;4.20;;;;;;;20.32;70.22;98811.47;4962205;28;20480;-80
2023/06/29 06:08:57;;;;;;;11.27;4.38;;;;;;;19.95;69.79;98808.06;4967305;28;20031;-80
2023/06/29 06:11:23;;;;;;;7.20;5.25;;;;;;;19.79;73.25;98816.91;4968027;28;20027;-80
2023/06/29 06:13:49;;;;;;;4.75;4.32;;;;;;;20.18;70.13;98815.03;4972247;28;20096;-80
2023/06/29 06:16:14;;;;;;;6.70;4.78;;;;;;;20.40;70.84;98814.22;4952067;28;20027;-80
2023/06/29 06:18:40;;;;;;;6.10;4.00;;;;;;;20.66;67.70;98814.31;4965311;28;20163;-82
2023/06/29 06:21:05;;;;;;;8.85;4.10;;;;;;;20.77;67.34;98810.97;4967562;28;20555;-82
2023/06/29 06:23:31;;;;;;;6.15;3.53;;;;;;;20.89;66.97;98822.03;4969682;28;20081;-81
2023/06/29 06:25:56;;;;;;;8.02;3.50;;;;;;;20.82;67.70;98818.97;4967732;28;20031;-82
2023/06/29 06:28:24;;;;;;;6.03;3.88;;;;;;;20.91;66.85;98819.00;4967735;28;20781;-79
2023/06/29 06:30:49;;;;;;;5.95;4.05;;;;;;;20.88;66.90;98817.72;4950164;28;20119;-82
2023/06/29 06:33:16;;;;;;;6.88;4.03;;;;;;;20.87;66.47;98816.13;4931488;28;20123;-79
2023/06/29 06:35:41;;;;;;;4.93;3.33;;;;;;;20.89;67.10;98808.47;4966924;28;20030;-79
2023/06/29 06:38:07;;;;;;;5.45;3.60;;;;;;;20.92;66.94;98813.25;4967510;28;20389;-81
2023/06/29 06:40:32;;;;;;;4.47;3.78;;;;;;;20.97;66.98;98814.22;4971363;28;20034;-79
2023/06/29 06:42:57;;;;;;;5.13;3.67;;;;;;;20.86;68.83;98809.09;4968002;28;20066;-79
2023/06/29 06:45:23;;;;;;;6.18;3.97;;;;;;;21.02;66.49;98805.91;4953532;28;20042;-79
2023/06/29 06:47:48;;;;;;;6.45;3.75;;;;;;;21.07;67.21;98812.03;4963501;28;20049;-79
2023/06/29 06:50:14;;;;;;;4.03;3.63;;;;;;;21.00;68.82;98810.88;4970157;28;20034;-79
2023/06/29 06:52:39;;;;;;;4.40;3.42;;;;;;;21.10;66.92;98807.91;4955115;28;20027;-81
2023/06/29 06:55:05;;;;;;;6.57;3.40;;;;;;;21.11;66.58;98815.72;4964055;28;20046;-82
2023/06/29 06:57:31;;;;;;;6.28;3.53;;;;;;;21.15;66.54;98808.53;4971944;28;20022;-81
2023/06/29 06:59:56;;;;;;;4.80;3.58;;;;;;;21.06;69.17;98805.00;4971810;28;20081;-81
2023/06/29 07:02:21;;;;;;;4.35;3.58;;;;;;;21.14;67.15;98811.56;4948142;28;20039;-81
2023/06/29 07:04:47;;;;;;;6.82;3.60;;;;;;;21.17;66.64;98806.28;4970854;28;20380;-81
2023/06/29 07:07:12;;;;;;;8.68;4.78;;;;;;;20.90;69.75;98803.84;4940764;28;20031;-81
2023/06/29 07:09:38;;;;;;;4.60;3.47;;;;;;;21.13;66.88;98804.53;4961205;28;20023;-81
2023/06/29 07:12:04;;;;;;;7.15;3.65;;;;;;;21.15;68.69;98800.38;4966007;28;20078;-82
2023/06/29 07:14:31;;;;;;;5.97;3.30;;;;;;;21.28;66.34;98798.63;4954364;28;20113;-81
2023/06/29 07:16:57;;;;;;;5.90;4.00;;;;;;;21.34;66.93;98808.22;4969927;28;20514;-81
2023/06/29 07:19:22;;;;;;;6.97;4.53;;;;;;;21.36;68.24;98800.56;4969545;28;20035;-81
2023/06/29 07:21:48;;;;;;;3.45;2.97;;;;;;;21.45;66.44;98804.06;4970746;28;20030;-81
2023/06/29 07:24:13;;;;;;;5.13;3.70;;;;;;;21.53;66.06;98798.63;4959180;28;20892;-81
2023/06/29 07:26:39;;;;;;;3.72;3.42;;;;;;;21.54;66.08;98796.69;4956201;28;20089;-81
2023/06/29 07:29:05;;;;;;;6.88;3.67;;;;;;;21.69;67.40;98796.19;4967209;28;20031;-81
2023/06/29 07:31:31;;;;;;;7.78;4.10;;;;;;;21.68;67.79;98786.47;4968638;28;20039;-81
2023/06/29 07:33:57;;;;;;;11.32;3.70;;;;;;;21.86;65.43;98782.63;4964367;28;20027;-81
2023/06/29 07:36:24;;;;;;;5.75;3.75;;;;;;;21.76;65.88;98782.13;4962411;28;20102;-81
2023/06/29 07:38:50;;;;;;;7.68;4.50;;;;;;;21.75;67.37;98788.69;4950402;28;20073;-81
2023/06/29 07:41:17;;;;;;;8.45;4.70;;;;;;;21.67;67.77;98774.00;4971264;28;20054;-81
2023/06/29 07:43:47;;;;;;;4.15;3.33;;;;;;;21.92;65.91;98783.25;4970653;28;20044;-81
2023/06/29 07:46:13;;;;;;;4.80;3.88;;;;;;;21.78;67.52;98771.72;4969683;28;20557;-81
2023/06/29 07:48:38;;;;;;;4.20;3.50;;;;;;;21.94;65.51;98773.66;4969426;28;20027;-81
2023/06/29 07:51:04;;;;;;;7.38;4.25;;;;;;;21.95;67.31;98771.75;4964002;28;20043;-81
2023/06/29 07:53:30;;;;;;;6.65;4.72;;;;;;;22.11;66.56;98779.03;4949737;28;20114;-81
2023/06/29 07:55:56;;;;;;;4.05;3.70;;;;;;;22.18;65.42;98776.59;4969477;28;20030;-81
2023/06/29 07:58:21;;;;;;;5.30;3.55;;;;;;;22.24;65.17;98769.88;4963910;28;20130;-82
2023/06/29 08:00:46;;;;;;;7.40;4.53;;;;;;;22.33;65.06;98776.06;4943575;29;20500;-81
2023/06/29 08:03:12;;;;;;;6.22;4.13;;;;;;;22.24;64.92;98778.03;4929330;28;20106;-81
2023/06/29 08:05:37;;;;;;;7.32;4.78;;;;;;;22.26;64.63;98774.97;4970673;28;20051;-81
2023/06/29 08:08:03;;;;;;;8.32;5.65;;;;;;;22.40;64.29;98767.41;4947736;29;20204;-81
2023/06/29 08:10:28;;;;;;;4.70;3.65;;;;;;;22.56;64.82;98773.88;4966375;28;20491;-82
2023/06/29 08:12:53;;;;;;;4.82;4.32;;;;;;;22.34;64.83;98766.75;4966690;28;20038;-82
2023/06/29 08:15:19;;;;;;;4.88;4.30;;;;;;;22.64;64.44;98767.63;4952888;28;20031;-81
2023/06/29 08:17:44;;;;;;;6.63;4.93;;;;;;;22.74;63.73;98766.41;4946063;28;20062;-81
2023/06/29 08:20:12;;;;;;;6.13;3.70;;;;;;;22.78;63.49;98762.72;4953852;28;20100;-81
2023/06/29 08:22:38;;;;;;;4.95;3.50;;;;;;;22.84;63.16;98777.75;4966619;28;20041;-81
2023/06/29 08:25:04;;;;;;;9.02;4.43;;;;;;;22.87;64.02;98774.34;4964472;28;20189;-81
2023/06/29 08:27:30;;;;;;;9.35;4.50;;;;;;;22.90;63.88;98768.25;4952246;28;20125;-81
2023/06/29 08:29:55;;;;;;;6.32;4.30;;;;;;;23.05;62.79;98766.84;4967172;28;20085;-81
2023/06/29 08:32:20;;;;;;;8.43;4.65;;;;;;;23.05;62.19;98758.69;4948767;28;20035;-81
2023/06/29 08:34:46;;;;;;;6.07;5.00;;;;;;;23.12;62.91;98753.53;4961483;28;20160;-81
2023/06/29 08:37:11;;;;;;;7.07;3.58;;;;;;;23.21;62.20;98767.88;4933527;28;20027;-81
2023/06/29 08:39:37;;;;;;;5.70;3.40;;;;;;;23.26;63.72;98764.94;4965034;28;20031;-82
2023/06/29 08:42:02;;;;;;;5.78;3.50;;;;;;;23.26;61.52;98753.25;4950392;28;20034;-82
2023/06/29 08:44:28;;;;;;;8.40;4.38;;;;;;;23.37;61.43;98760.69;4960126;28;20054;-81
2023/06/29 08:46:58;;;;;;;7.22;4.47;;;;;;;23.40;61.35;98757.31;4943879;28;20034;-82
2023/06/29 08:49:25;;;;;;;7.93;4.35;;;;;;;23.15;62.31;98749.34;4960023;28;20518;-81
2023/06/29 08:51:53;;;;;;;11.57;4.05;;;;;;;23.41;61.27;98748.03;4945485;28;20039;-81
2023/06/29 08:54:19;;;;;;;6.28;3.72;;;;;;;23.57;62.50;98751.69;4969071;28;20030;-81
2023/06/29 08:56:46;;;;;;;4.95;3.78;;;;;;;23.72;61.99;98745.59;4955338;28;20035;-81
2023/06/29 08:59:12;;;;;;;6.07;3.65;;;;;;;23.70;61.16;98736.16;4959599;28;20031;-82
2023/06/29 09:01:38;;;;;;;8.30;3.85;;;;;;;23.79;62.31;98743.13;4955492;28;20517;-81
2023/06/29 09:04:04;;;;;;;6.63;3.58;;;;;;;23.88;61.04;98743.03;4960223;28;20045;-81
2023/06/29 09:06:29;;;;;;;8.88;3.67;;;;;;;24.02;60.25;98740.78;4963290;28;20109;-81
2023/06/29 09:08:55;;;;;;;5.05;3.90;;;;;;;24.05;61.41;98742.84;4936612;28;20494;-81
2023/06/29 09:11:20;;;;;;;4.95;3.67;;;;;;;24.12;59.61;98751.28;4965988;28;20082;-81
2023/06/29 09:13:46;;;;;;;6.07;3.47;;;;;;;24.18;59.57;98746.41;4965264;28;20130;-81
2023/06/29 09:16:13;;;;;;;7.05;3.70;;;;;;;24.26;59.36;98737.31;4972951;28;20039;-81
2023/06/29 09:18:39;;;;;;;4.03;3.50;;;;;;;24.24;58.58;98734.94;4961153;28;20057;-81
2023/06/29 09:21:06;;;;;;;4.75;3.33;;;;;;;24.30;59.10;98738.22;4968118;28;20794;-82
2023/06/29 09:23:33;;;;;;;5.53;3.47;;;;;;;24.39;58.68;98737.00;4966396;28;20121;-81
2023/06/29 09:25:58;;;;;;;4.43;3.60;;;;;;;24.47;58.38;98735.25;4968615;28;20086;-83
2023/06/29 09:28:25;;;;;;;9.52;3.90;;;;;;;24.36;57.50;98736.84;4953829;28;20407;-82
2023/06/29 09:30:50;;;;;;;2.92;2.67;;;;;;;24.44;58.53;98723.09;4929237;28;20031;-81
2023/06/29 09:33:16;;;;;;;6.97;4.00;;;;;;;24.41;58.57;98739.38;4966002;28;20098;-81
2023/06/29 09:35:51;;;;;;;6.00;3.58;;;;;;;24.69;57.95;98734.00;4951323;28;20511;-81
2023/06/29 09:38:17;;;;;;;3.78;2.60;;;;;;;24.64;58.31;98723.31;4964444;28;20033;-82
2023/06/29 09:40:47;;;;;;;4.55;4.10;;;;;;;24.46;56.47;98728.22;4969471;28;20687;-81
2023/06/29 09:43:17;;;;;;;7.07;3.58;;;;;;;24.83;58.24;98724.34;4946251;28;20038;-82
2023/06/29 09:45:43;;;;;;;4.25;3.53;;;;;;;24.90;57.28;98721.81;4967205;28;20022;-81
2023/06/29 09:48:11;;;;;;;5.18;3.80;;;;;;;24.83;57.36;98721.63;4968088;28;20601;-81
2023/06/29 09:50:37;;;;;;;8.23;3.78;;;;;;;25.04;57.24;98713.25;4966782;28;20114;-82
2023/06/29 09:53:07;;;;;;;3.83;3.47;;;;;;;25.10;56.80;98715.38;4929291;28;20058;-82
2023/06/29 09:55:34;;;;;;;8.60;3.47;;;;;;;25.03;55.26;98723.38;4967308;28;20066;-82
2023/06/29 09:58:00;;;;;;;5.85;3.80;;;;;;;25.06;56.19;98725.41;4961252;28;20031;-81
2023/06/29 10:00:27;;;;;;;6.47;3.58;;;;;;;25.34;56.17;98711.75;4963844;28;20069;-82
2023/06/29 10:02:56;;;;;;;6.95;3.47;;;;;;;25.46;55.90;98721.88;4945855;29;20722;-82
2023/06/29 10:05:21;;;;;;;3.83;3.35;;;;;;;25.64;56.18;98701.28;4964043;28;20067;-82
2023/06/29 10:07:47;;;;;;;4.28;3.88;;;;;;;25.64;55.97;98704.78;4955498;28;20454;-82
2023/06/29 10:10:16;;;;;;;5.45;3.85;;;;;;;25.63;55.50;98697.75;4970996;28;20030;-82
2023/06/29 10:12:41;;;;;;;5.85;3.80;;;;;;;25.78;54.69;98710.63;4971058;28;20026;-82
2023/06/29 10:15:09;;;;;;;5.80;3.78;;;;;;;25.71;54.75;98706.91;4956694;28;20042;-82
2023/06/29 10:17:51;;;;;;;6.72;4.25;;;;;;;25.48;55.17;98700.44;4961165;28;20038;-82
2023/06/29 10:20:19;;;;;;;6.93;4.63;;;;;;;25.60;54.55;98700.41;4962329;28;20086;-82
2023/06/29 10:22:45;;;;;;;7.68;4.75;;;;;;;25.81;54.01;98687.28;4964987;28;20553;-81
2023/06/29 10:25:20;;;;;;;5.68;4.70;;;;;;;26.07;53.67;98693.00;4970557;28;20035;-82
2023/06/29 10:27:47;;;;;;;14.48;6.93;;;;;;;26.16;55.16;98690.13;4980079;28;20122;-82
2023/06/29 10:30:21;;;;;;;9.10;7.57;;;;;;;26.37;53.74;98688.66;4967083;28;20133;-82
2023/06/29 10:32:49;;;;;;;8.52;6.20;;;;;;;26.33;53.24;98692.47;4969676;28;20026;-82
2023/06/29 10:35:15;;;;;;;8.60;6.97;;;;;;;26.25;53.48;98680.59;4964774;28;20027;-82
2023/06/29 10:37:45;;;;;;;9.77;7.35;;;;;;;26.21;53.32;98682.41;4969398;28;20023;-82
2023/06/29 10:40:11;;;;;;;8.70;7.30;;;;;;;26.21;53.43;98682.41;4965672;28;20054;-82
2023/06/29 10:42:37;;;;;;;11.75;8.23;;;;;;;26.25;53.66;98683.31;4964357;28;20054;-82
2023/06/29 10:45:22;;;;;;;11.68;7.07;;;;;;;26.35;53.38;98690.97;4963739;28;20027;-82
2023/06/29 10:47:57;;;;;;;9.77;7.20;;;;;;;26.35;53.04;98682.75;4970245;28;20031;-82
2023/06/29 10:50:28;;;;;;;11.48;7.72;;;;;;;26.15;53.50;98683.03;4971462;28;20332;-82
2023/06/29 10:52:58;;;;;;;12.85;8.38;;;;;;;26.15;55.13;98669.38;4971921;28;20121;-82
2023/06/29 10:55:25;;;;;;;8.77;7.28;;;;;;;26.38;53.05;98675.78;4966746;28;21000;-82
2023/06/29 10:57:54;;;;;;;11.23;7.63;;;;;;;26.23;53.61;98682.09;4972112;28;20093;-82
2023/06/29 11:00:20;;;;;;;10.93;8.23;;;;;;;26.09;53.88;98677.06;4967615;28;20037;-82
2023/06/29 11:02:49;;;;;;;11.68;8.00;;;;;;;26.14;53.68;98667.78;4964307;28;20046;-82
2023/06/29 11:05:16;;;;;;;9.30;7.22;;;;;;;26.13;53.88;98668.94;4958876;28;20023;-82
2023/06/29 11:07:44;;;;;;;11.73;8.57;;;;;;;26.44;52.84;98669.69;4970263;28;20042;-81
2023/06/29 11:10:11;;;;;;;9.38;7.45;;;;;;;26.34;52.96;98672.19;4956260;28;20031;-82
2023/06/29 11:12:40;;;;;;;12.05;9.02;;;;;;;26.45;53.80;98665.78;4956690;28;20049;-82
2023/06/29 11:15:12;;;;;;;13.10;8.30;;;;;;;26.49;52.38;98666.69;4966756;28;20026;-82
2023/06/29 11:17:38;;;;;;;11.32;8.13;;;;;;;26.38;54.54;98657.44;4968664;28;20222;-82
2023/06/29 11:20:05;;;;;;;10.15;7.45;;;;;;;26.72;52.07;98664.03;4953339;28;20474;-82
2023/06/29 11:22:36;;;;;;;12.23;7.90;;;;;;;26.84;52.10;98646.69;4951807;28;20028;-81
2023/06/29 11:25:01;;;;;;;8.77;7.10;;;;;;;26.97;52.16;98659.91;4972420;28;20102;-82
2023/06/29 11:27:27;;;;;;;8.95;7.45;;;;;;;27.01;51.67;98659.97;4964619;28;20707;-81